createdAt,value
2023-03-31T00:01:41.967Z,100111.84
2023-03-31T00:04:13.602Z,100104.78
2023-03-31T00:06:42.517Z,100111.84
2023-03-31T00:09:15.783Z,100111.31
2023-03-31T00:11:42.225Z,100106.44
2023-03-31T00:14:09.085Z,100103.72
2023-03-31T00:16:37.266Z,100095.25
2023-03-31T00:19:04.404Z,100086.25
2023-03-31T00:21:34.135Z,100093.88
2023-03-31T00:24:06.123Z,100084.09
2023-03-31T00:26:33.848Z,100078.66
2023-03-31T00:29:00.877Z,100079.78
2023-03-31T00:31:28.489Z,100073.25
2023-03-31T00:33:55.775Z,100068.88
2023-03-31T00:36:27.321Z,100059.34
2023-03-31T00:39:09.044Z,100050.38
2023-03-31T00:41:38.994Z,100054.19
2023-03-31T00:44:10.279Z,100042.44
2023-03-31T00:47:22.966Z,100026.91
2023-03-31T00:49:57.011Z,100023.41
2023-03-31T00:52:35.488Z,100010.03
2023-03-31T00:55:07.582Z,100002.16
2023-03-31T00:57:37.047Z,99995.91
2023-03-31T01:00:14.442Z,99987.22
2023-03-31T01:02:52.128Z,99989.13
2023-03-31T01:05:30.966Z,99991.63
2023-03-31T01:07:59.443Z,99983.47
2023-03-31T01:10:26.914Z,99976.41
2023-03-31T01:12:55.571Z,99964.19
2023-03-31T01:15:22.458Z,99959.53
2023-03-31T01:17:50.988Z,99945.66
2023-03-31T01:20:42.486Z,99945.34
2023-03-31T01:23:31.475Z,99945.09
2023-03-31T01:25:57.753Z,99944.28
2023-03-31T01:28:47.409Z,99947.00
2023-03-31T01:31:39.938Z,99929.88
2023-03-31T01:34:30.873Z,99919.25
2023-03-31T01:37:23.289Z,99921.16
2023-03-31T01:40:00.460Z,99915.72
2023-03-31T01:42:39.299Z,99912.69
2023-03-31T01:45:27.473Z,99918.44
2023-03-31T01:48:13.035Z,99912.19
2023-03-31T01:50:48.785Z,99895.06
2023-03-31T01:53:15.341Z,99896.38
2023-03-31T01:55:48.001Z,99901.31
2023-03-31T01:58:26.672Z,99898.59
2023-03-31T02:01:03.630Z,99894.75
2023-03-31T02:03:36.378Z,99898.56
2023-03-31T02:06:13.599Z,99886.31
2023-03-31T02:08:54.919Z,99889.63
2023-03-31T02:11:22.900Z,99873.56
2023-03-31T02:13:53.353Z,99871.41
2023-03-31T02:16:25.900Z,99870.03
2023-03-31T02:19:02.073Z,99870.31
2023-03-31T02:21:32.108Z,99860.78
2023-03-31T02:24:02.841Z,99855.31
2023-03-31T02:26:36.305Z,99844.16
2023-03-31T02:29:03.206Z,99832.75
2023-03-31T02:31:46.297Z,99824.09
2023-03-31T02:34:12.707Z,99816.25
2023-03-31T02:36:41.400Z,99801.56
2023-03-31T02:39:12.527Z,99789.28
2023-03-31T02:41:38.875Z,99780.59
2023-03-31T02:44:05.419Z,99771.91
2023-03-31T02:46:32.310Z,99764.31
2023-03-31T02:49:02.676Z,99751.19
2023-03-31T02:51:34.902Z,99749.06
2023-03-31T02:54:36.720Z,99753.16
2023-03-31T02:57:21.209Z,99740.94
2023-03-31T03:00:18.897Z,99714.84
2023-03-31T03:03:12.943Z,99707.50
2023-03-31T03:05:58.838Z,99691.66
2023-03-31T03:08:55.634Z,99680.81
2023-03-31T03:11:41.009Z,99676.19
2023-03-31T03:14:18.351Z,99675.66
2023-03-31T03:16:50.259Z,99678.38
2023-03-31T03:19:22.174Z,99672.41
2023-03-31T03:21:48.793Z,99673.78
2023-03-31T03:24:17.815Z,99654.78
2023-03-31T03:26:45.549Z,99648.53
2023-03-31T03:29:15.340Z,99656.44
2023-03-31T03:31:42.955Z,99671.66
2023-03-31T03:34:10.181Z,99676.31
2023-03-31T03:36:37.933Z,99653.97
2023-03-31T03:39:07.576Z,99652.91
2023-03-31T03:41:34.424Z,99646.69
2023-03-31T03:44:01.167Z,99631.69
2023-03-31T03:46:28.052Z,99615.38
2023-03-31T03:48:54.587Z,99609.06
2023-03-31T03:51:20.948Z,99611.53
2023-03-31T03:53:47.414Z,99611.78
2023-03-31T03:56:13.813Z,99608.28
2023-03-31T03:58:40.308Z,99607.22
2023-03-31T04:01:06.926Z,99598.00
2023-03-31T04:03:33.283Z,99597.50
2023-03-31T04:05:59.578Z,99597.22
2023-03-31T04:08:26.306Z,99593.69
2023-03-31T04:10:52.805Z,99593.72
2023-03-31T04:13:19.605Z,99592.59
2023-03-31T04:15:46.656Z,99585.03
2023-03-31T04:18:22.913Z,99578.47
2023-03-31T04:21:05.688Z,99580.13
2023-03-31T04:23:33.733Z,99567.66
2023-03-31T04:26:00.403Z,99564.16
2023-03-31T04:28:26.937Z,99556.28
2023-03-31T04:30:58.809Z,99552.22
2023-03-31T04:33:25.375Z,99541.06
2023-03-31T04:35:52.658Z,99542.69
2023-03-31T04:38:21.820Z,99519.88
2023-03-31T04:40:50.331Z,99503.75
2023-03-31T04:43:17.982Z,99484.19
2023-03-31T04:45:44.723Z,99476.94
2023-03-31T04:48:11.202Z,99480.50
2023-03-31T04:50:38.177Z,99483.50
2023-03-31T04:53:05.579Z,99469.38
2023-03-31T04:55:32.588Z,99476.13
2023-03-31T04:57:59.010Z,99465.00
2023-03-31T05:00:26.518Z,99459.00
2023-03-31T05:02:53.105Z,99450.88
2023-03-31T05:05:19.700Z,99450.88
2023-03-31T05:07:46.224Z,99444.41
2023-03-31T05:10:13.250Z,99441.72
2023-03-31T05:12:40.060Z,99430.84
2023-03-31T05:15:08.180Z,99421.03
2023-03-31T05:17:36.404Z,99420.81
2023-03-31T05:20:06.798Z,99415.59
2023-03-31T05:22:37.523Z,99407.50
2023-03-31T05:25:06.260Z,99410.50
2023-03-31T05:27:33.447Z,99402.38
2023-03-31T05:30:00.163Z,99383.66
2023-03-31T05:32:27.461Z,99395.59
2023-03-31T05:34:57.122Z,99386.06
2023-03-31T05:37:25.026Z,99396.63
2023-03-31T05:39:52.219Z,99384.44
2023-03-31T05:42:19.751Z,99374.91
2023-03-31T05:44:46.128Z,99366.78
2023-03-31T05:47:12.708Z,99368.34
2023-03-31T05:49:39.797Z,99362.41
2023-03-31T05:52:07.701Z,99357.44
2023-03-31T05:54:34.257Z,99357.94
2023-03-31T05:57:00.636Z,99357.94
2023-03-31T05:59:27.338Z,99357.41
2023-03-31T06:01:54.148Z,99363.94
2023-03-31T06:04:20.705Z,99363.31
2023-03-31T06:06:50.141Z,99357.94
2023-03-31T06:09:17.839Z,99356.31
2023-03-31T06:11:44.407Z,99353.06
2023-03-31T06:14:10.779Z,99349.81
2023-03-31T06:16:37.336Z,99350.59
2023-03-31T06:19:03.687Z,99338.28
2023-03-31T06:21:30.526Z,99339.00
2023-03-31T06:23:58.290Z,99341.44
2023-03-31T06:26:24.753Z,99332.38
2023-03-31T06:28:51.328Z,99320.16
2023-03-31T06:31:20.775Z,99328.25
2023-03-31T06:33:47.823Z,99333.97
2023-03-31T06:36:16.914Z,99335.78
2023-03-31T06:38:43.838Z,99337.97
2023-03-31T06:41:13.653Z,99325.22
2023-03-31T06:43:40.258Z,99322.78
2023-03-31T06:46:07.634Z,99321.66
2023-03-31T06:48:34.415Z,99314.00
2023-03-31T06:51:02.634Z,99318.94
2023-03-31T06:53:29.453Z,99307.25
2023-03-31T06:55:56.125Z,99308.00
2023-03-31T06:58:22.816Z,99310.78
2023-03-31T07:00:49.520Z,99308.53
2023-03-31T07:03:22.437Z,99299.34
2023-03-31T07:05:50.454Z,99298.16
2023-03-31T07:08:17.971Z,99301.91
2023-03-31T07:10:47.011Z,99291.03
2023-03-31T07:13:14.415Z,99294.28
2023-03-31T07:15:41.121Z,99294.19
2023-03-31T07:18:07.799Z,99297.41
2023-03-31T07:20:34.398Z,99296.34
2023-03-31T07:23:04.524Z,99299.56
2023-03-31T07:25:30.897Z,99297.13
2023-03-31T07:27:57.491Z,99290.28
2023-03-31T07:30:24.549Z,99296.34
2023-03-31T07:32:51.927Z,99291.41
2023-03-31T07:35:19.578Z,99290.75
2023-03-31T07:37:48.016Z,99293.41
2023-03-31T07:40:18.465Z,99286.28
2023-03-31T07:42:49.145Z,99277.53
2023-03-31T07:45:16.858Z,99278.03
2023-03-31T07:47:46.239Z,99271.22
2023-03-31T07:50:14.214Z,99270.31
2023-03-31T07:52:41.001Z,99276.66
2023-03-31T07:55:08.410Z,99282.16
2023-03-31T07:57:35.919Z,99276.19
2023-03-31T08:00:07.307Z,99276.75
2023-03-31T08:02:34.311Z,99267.06
2023-03-31T08:05:00.734Z,99277.47
2023-03-31T08:07:30.847Z,99264.56
2023-03-31T08:09:57.904Z,99263.38
2023-03-31T08:12:24.279Z,99266.88
2023-03-31T08:14:50.924Z,99253.03
2023-03-31T08:17:17.301Z,99246.97
2023-03-31T08:19:43.804Z,99242.56
2023-03-31T08:22:10.166Z,99247.50
2023-03-31T08:24:36.493Z,99239.72
2023-03-31T08:27:02.883Z,99236.91
2023-03-31T08:29:29.226Z,99234.09
2023-03-31T08:31:55.809Z,99228.75
2023-03-31T08:34:22.225Z,99221.31
2023-03-31T08:36:48.872Z,99232.03
2023-03-31T08:39:15.367Z,99231.22
2023-03-31T08:41:59.998Z,99226.88
2023-03-31T08:45:10.882Z,99230.28
2023-03-31T08:47:39.902Z,99222.13
2023-03-31T08:50:16.613Z,99219.78
2023-03-31T08:52:54.967Z,99225.63
2023-03-31T08:55:32.268Z,99213.28
2023-03-31T08:58:32.329Z,99210.31
2023-03-31T09:01:30.414Z,99210.75
2023-03-31T09:04:11.047Z,99211.84
2023-03-31T09:06:54.490Z,99211.00
2023-03-31T09:09:44.096Z,99210.44
2023-03-31T09:12:18.705Z,99200.38
2023-03-31T09:15:10.714Z,99203.81
2023-03-31T09:17:49.809Z,99198.47
2023-03-31T09:20:20.921Z,99190.03
2023-03-31T09:22:56.469Z,99187.59
2023-03-31T09:25:31.194Z,99195.94
2023-03-31T09:28:00.048Z,99186.25
2023-03-31T09:30:29.270Z,99189.53
2023-03-31T09:33:09.935Z,99186.81
2023-03-31T09:35:36.818Z,99181.97
2023-03-31T09:38:03.248Z,99174.41
2023-03-31T09:40:30.026Z,99176.00
2023-03-31T09:43:01.030Z,99167.75
2023-03-31T09:45:28.530Z,99171.44
2023-03-31T09:47:58.185Z,99161.59
2023-03-31T09:50:26.556Z,99173.94
2023-03-31T09:52:56.429Z,99190.72
2023-03-31T09:55:40.175Z,99164.13
2023-03-31T09:58:08.572Z,99163.22
2023-03-31T10:00:35.306Z,99161.06
2023-03-31T10:03:07.586Z,99152.13
2023-03-31T10:05:36.675Z,99149.53
2023-03-31T10:08:22.063Z,99156.53
2023-03-31T10:10:52.339Z,99148.38
2023-03-31T10:13:35.266Z,99128.91
2023-03-31T10:16:09.026Z,99163.69
2023-03-31T10:18:38.405Z,99131.84
2023-03-31T10:21:07.599Z,99141.50
2023-03-31T10:23:36.199Z,99140.84
2023-03-31T10:26:03.702Z,99140.84
2023-03-31T10:28:36.240Z,99125.41
2023-03-31T10:31:04.218Z,99134.75
2023-03-31T10:33:36.555Z,99128.50
2023-03-31T10:36:09.963Z,99119.00
2023-03-31T10:38:42.626Z,99119.97
2023-03-31T10:41:09.787Z,99112.91
2023-03-31T10:43:47.896Z,99108.56
2023-03-31T10:46:14.549Z,99109.03
2023-03-31T10:48:44.226Z,99107.41
2023-03-31T10:51:14.816Z,99125.78
2023-03-31T10:53:43.846Z,99096.16
2023-03-31T10:56:35.405Z,99097.72
2023-03-31T10:59:26.346Z,99082.38
2023-03-31T11:02:27.260Z,99099.16
2023-03-31T11:05:25.333Z,99087.56
2023-03-31T11:08:13.072Z,99095.34
2023-03-31T11:10:53.883Z,99101.28
2023-03-31T11:13:36.345Z,99102.75
2023-03-31T11:16:08.472Z,99104.69
2023-03-31T11:18:59.459Z,99092.78
2023-03-31T11:21:47.258Z,99102.75
2023-03-31T11:24:51.873Z,99110.00
2023-03-31T11:27:32.304Z,99111.59
2023-03-31T11:30:27.112Z,99110.00
2023-03-31T11:33:28.953Z,99122.84
2023-03-31T11:36:11.862Z,99107.72
2023-03-31T11:38:45.959Z,99117.81
2023-03-31T11:41:19.967Z,99115.22
2023-03-31T11:43:52.477Z,99112.63
2023-03-31T11:46:40.989Z,99114.41
2023-03-31T11:49:28.060Z,99114.91
2023-03-31T11:52:01.849Z,99107.97
2023-03-31T11:54:31.908Z,99114.91
2023-03-31T11:57:04.604Z,99101.22
2023-03-31T11:59:32.608Z,99102.81
2023-03-31T12:02:19.496Z,99094.31
2023-03-31T12:04:53.255Z,99093.16
2023-03-31T12:07:31.030Z,99076.44
2023-03-31T12:10:19.353Z,99079.03
2023-03-31T12:12:56.272Z,99066.66
2023-03-31T12:15:27.077Z,99072.25
2023-03-31T12:18:03.844Z,99088.31
2023-03-31T12:20:32.284Z,99059.03
2023-03-31T12:23:02.763Z,99067.97
2023-03-31T12:25:44.126Z,99053.19
2023-03-31T12:28:11.830Z,99059.66
2023-03-31T12:30:44.577Z,99047.31
2023-03-31T12:33:20.053Z,99037.03
2023-03-31T12:35:58.304Z,99025.94
2023-03-31T12:39:09.241Z,99030.78
2023-03-31T12:42:14.798Z,99032.41
2023-03-31T12:45:11.678Z,99038.84
2023-03-31T12:47:53.348Z,99025.78
2023-03-31T12:50:28.124Z,99027.41
2023-03-31T12:53:20.145Z,99020.19
2023-03-31T12:55:49.207Z,99018.56
2023-03-31T12:58:24.889Z,99022.72
2023-03-31T13:01:18.155Z,99017.47
2023-03-31T13:03:46.383Z,99012.91
2023-03-31T13:06:28.128Z,99015.84
2023-03-31T13:09:00.846Z,99007.16
2023-03-31T13:11:32.995Z,99020.81
2023-03-31T13:14:13.054Z,99029.03
2023-03-31T13:16:39.733Z,99030.13
2023-03-31T13:19:06.397Z,99029.97
2023-03-31T13:21:53.176Z,99030.72
2023-03-31T13:24:23.716Z,99027.50
2023-03-31T13:26:51.774Z,99031.84
2023-03-31T13:29:22.257Z,99033.78
2023-03-31T13:32:00.905Z,99027.03
2023-03-31T13:34:32.081Z,99021.72
2023-03-31T13:37:09.437Z,99029.44
2023-03-31T13:39:57.570Z,99025.94
2023-03-31T13:43:06.952Z,99010.97
2023-03-31T13:45:48.114Z,99026.75
2023-03-31T13:48:32.268Z,99030.75
2023-03-31T13:51:17.448Z,99030.91
2023-03-31T13:54:05.660Z,99027.22
2023-03-31T13:57:02.616Z,99025.00
2023-03-31T13:59:34.931Z,99027.72
2023-03-31T14:02:26.454Z,99009.72
2023-03-31T14:05:01.288Z,99018.25
2023-03-31T14:07:37.062Z,99010.03
2023-03-31T14:10:04.403Z,99008.56
2023-03-31T14:12:32.457Z,99008.56
2023-03-31T14:14:59.479Z,99009.38
2023-03-31T14:17:36.206Z,99006.53
2023-03-31T14:20:27.431Z,98987.38
2023-03-31T14:23:17.078Z,98991.81
2023-03-31T14:26:27.121Z,98995.56
2023-03-31T14:29:13.715Z,98988.31
2023-03-31T14:31:57.467Z,98972.06
2023-03-31T14:35:03.511Z,98980.59
2023-03-31T14:37:30.878Z,98980.41
2023-03-31T14:39:58.904Z,98983.13
2023-03-31T14:42:39.838Z,98970.59
2023-03-31T14:45:16.418Z,98975.13
2023-03-31T14:47:42.949Z,98964.16
2023-03-31T14:50:17.235Z,98961.13
2023-03-31T14:52:55.497Z,98957.56
2023-03-31T14:55:35.580Z,98960.94
2023-03-31T14:58:14.348Z,98950.00
2023-03-31T15:00:41.490Z,98958.03
2023-03-31T15:03:13.657Z,98946.97
2023-03-31T15:05:41.537Z,98946.81
2023-03-31T15:08:14.451Z,98941.31
2023-03-31T15:10:44.365Z,98942.28
2023-03-31T15:13:16.553Z,98948.88
2023-03-31T15:15:46.084Z,98942.44
2023-03-31T15:18:14.673Z,98945.19
2023-03-31T15:20:43.243Z,98950.16
2023-03-31T15:23:27.346Z,98945.84
2023-03-31T15:26:15.391Z,98935.84
2023-03-31T15:28:51.958Z,98939.25
2023-03-31T15:31:18.755Z,98945.53
2023-03-31T15:33:47.045Z,98947.44
2023-03-31T15:36:14.748Z,98945.84
2023-03-31T15:38:41.518Z,98951.31
2023-03-31T15:41:17.079Z,98944.72
2023-03-31T15:44:04.989Z,98951.47
2023-03-31T15:46:43.824Z,98951.31
2023-03-31T15:49:24.801Z,98955.47
2023-03-31T15:51:53.066Z,98958.53
2023-03-31T15:54:46.279Z,98976.69
2023-03-31T15:57:17.825Z,98975.38
2023-03-31T16:02:23.285Z,98979.66
2023-03-31T16:04:54.652Z,98993.53
2023-03-31T16:07:28.635Z,98998.88
2023-03-31T16:10:18.138Z,98992.50
2023-03-31T16:13:03.364Z,98999.94
2023-03-31T16:15:36.289Z,99006.81
2023-03-31T16:18:08.001Z,99014.72
2023-03-31T16:20:45.709Z,99004.41
2023-03-31T16:23:20.349Z,99003.41
2023-03-31T16:25:47.262Z,99001.31
2023-03-31T16:28:17.792Z,99019.03
2023-03-31T16:30:45.538Z,99000.69
2023-03-31T16:33:18.116Z,99013.53
2023-03-31T16:35:51.121Z,99003.97
2023-03-31T16:38:20.801Z,98997.19
2023-03-31T16:40:49.647Z,99000.53
2023-03-31T16:43:17.648Z,98987.50
2023-03-31T16:45:52.085Z,98990.84
2023-03-31T16:48:21.622Z,98984.00
2023-03-31T16:50:54.133Z,98983.69
2023-03-31T16:53:23.908Z,98999.31
2023-03-31T16:55:50.518Z,98991.63
2023-03-31T16:58:17.910Z,98985.56
2023-03-31T17:00:45.892Z,98983.94
2023-03-31T17:03:13.879Z,98981.72
2023-03-31T17:05:42.356Z,98981.59
2023-03-31T17:08:10.192Z,98968.47
2023-03-31T17:10:38.423Z,98976.50
2023-03-31T17:13:04.861Z,98969.38
2023-03-31T17:15:31.236Z,98971.69
2023-03-31T17:17:58.979Z,98969.56
2023-03-31T17:20:26.386Z,98977.25
2023-03-31T17:22:54.057Z,98966.53
2023-03-31T17:25:21.385Z,98975.22
2023-03-31T17:27:47.745Z,98958.56
2023-03-31T17:30:14.896Z,98969.47
2023-03-31T17:32:41.584Z,98971.53
2023-03-31T17:35:10.227Z,98976.41
2023-03-31T17:37:37.294Z,98971.13
2023-03-31T17:40:05.133Z,98975.78
2023-03-31T17:42:31.648Z,98985.06
2023-03-31T17:44:58.389Z,98979.63
2023-03-31T17:47:25.077Z,98975.59
2023-03-31T17:49:51.851Z,98982.44
2023-03-31T17:52:18.292Z,98992.25
2023-03-31T17:54:44.764Z,98989.22
2023-03-31T17:57:11.138Z,98995.00
2023-03-31T17:59:38.483Z,98995.00
2023-03-31T18:02:05.636Z,98990.63
2023-03-31T18:04:32.232Z,98995.19
2023-03-31T18:06:58.580Z,98987.31
2023-03-31T18:09:25.081Z,99000.63
2023-03-31T18:11:51.897Z,98999.00
2023-03-31T18:14:18.452Z,98991.00
2023-03-31T18:16:45.112Z,98993.25
2023-03-31T18:19:11.507Z,98996.16
2023-03-31T18:21:38.040Z,98999.38
2023-03-31T18:24:04.387Z,99005.66
2023-03-31T18:26:30.883Z,98995.38
2023-03-31T18:28:57.308Z,98999.00
2023-03-31T18:31:25.121Z,99003.66
2023-03-31T18:33:52.390Z,99016.69
2023-03-31T18:36:20.124Z,99016.81
2023-03-31T18:38:48.159Z,99011.59
2023-03-31T18:41:15.628Z,99012.63
2023-03-31T18:43:42.017Z,99027.84
2023-03-31T18:46:08.634Z,99025.56
2023-03-31T18:48:35.091Z,99022.22
2023-03-31T18:51:01.789Z,99019.31
2023-03-31T18:53:30.046Z,99022.94
2023-03-31T18:55:58.762Z,99030.94
2023-03-31T18:58:28.758Z,99028.03
2023-03-31T19:00:56.311Z,99031.03
2023-03-31T19:03:23.424Z,99025.19
2023-03-31T19:05:50.152Z,99020.56
2023-03-31T19:08:16.526Z,99020.97
2023-03-31T19:10:43.329Z,99018.53
2023-03-31T19:13:14.788Z,99018.75
2023-03-31T19:15:41.885Z,99017.00
2023-03-31T19:18:13.435Z,99020.66
2023-03-31T19:20:39.850Z,99027.03
2023-03-31T19:23:06.213Z,99037.81
2023-03-31T19:25:32.641Z,99035.22
2023-03-31T19:27:59.248Z,99026.41
2023-03-31T19:30:25.636Z,99030.84
2023-03-31T19:32:52.226Z,99030.84
2023-03-31T19:35:19.917Z,99041.53
2023-03-31T19:37:47.582Z,99033.50
2023-03-31T19:40:14.513Z,99043.97
2023-03-31T19:42:42.084Z,99036.00
2023-03-31T19:45:09.034Z,99029.44
2023-03-31T19:47:35.430Z,99039.22
2023-03-31T19:50:02.045Z,99038.94
2023-03-31T19:52:29.318Z,99035.09
2023-03-31T19:54:55.803Z,99031.56
2023-03-31T19:57:22.294Z,99034.16
2023-03-31T19:59:48.756Z,99030.84
2023-03-31T20:02:15.271Z,99022.38
2023-03-31T20:04:42.649Z,99037.47
2023-03-31T20:07:09.202Z,99033.63
2023-03-31T20:09:35.747Z,99023.97
2023-03-31T20:12:02.305Z,99021.56
2023-03-31T20:14:29.483Z,99024.47
2023-03-31T20:16:56.148Z,99014.94
2023-03-31T20:19:23.202Z,99017.22
2023-03-31T20:21:56.051Z,99014.50
2023-03-31T20:24:22.565Z,99021.47
2023-03-31T20:26:49.382Z,99027.41
2023-03-31T20:29:16.085Z,99022.59
2023-03-31T20:31:42.576Z,99028.53
2023-03-31T20:34:14.826Z,99017.72
2023-03-31T20:36:43.147Z,99016.03
2023-03-31T20:39:11.094Z,99014.22
2023-03-31T20:41:37.422Z,99019.38
2023-03-31T20:44:07.521Z,99015.22
2023-03-31T20:46:34.418Z,99010.69
2023-03-31T20:49:01.407Z,99021.88
2023-03-31T20:51:30.654Z,99023.06
2023-03-31T20:53:58.718Z,99022.88
2023-03-31T20:56:29.990Z,99012.28
2023-03-31T20:58:58.896Z,99021.34
2023-03-31T21:01:31.087Z,99006.31
2023-03-31T21:04:00.723Z,99010.47
2023-03-31T21:06:36.366Z,99014.78
2023-03-31T21:09:02.893Z,99016.81
2023-03-31T21:11:29.323Z,99014.59
2023-03-31T21:13:56.026Z,99020.34
2023-03-31T21:16:23.610Z,99025.97
2023-03-31T21:18:51.692Z,99021.94
2023-03-31T21:21:24.471Z,99013.06
2023-03-31T21:23:51.553Z,99017.13
2023-03-31T21:26:18.340Z,99021.56
2023-03-31T21:28:44.808Z,99039.25
2023-03-31T21:31:17.884Z,99029.78
2023-03-31T21:33:46.257Z,99026.78
2023-03-31T21:36:15.184Z,99017.50
2023-03-31T21:38:42.273Z,99023.94
2023-03-31T21:41:11.464Z,99017.31
2023-03-31T21:43:38.257Z,99025.91
2023-03-31T21:46:05.056Z,99024.56
2023-03-31T21:48:31.911Z,99031.59
2023-03-31T21:51:00.555Z,99018.28
2023-03-31T21:53:28.668Z,99019.94
2023-03-31T21:55:56.448Z,99018.63
2023-03-31T21:58:25.258Z,99017.09
2023-03-31T22:00:52.005Z,99021.94
2023-03-31T22:03:27.114Z,99014.41
2023-03-31T22:05:55.523Z,99019.63
2023-03-31T22:08:21.874Z,99009.25
2023-03-31T22:10:52.167Z,99018.44
2023-03-31T22:13:19.640Z,99029.91
2023-03-31T22:15:45.982Z,99013.69
2023-03-31T22:18:12.636Z,99009.44
2023-03-31T22:20:39.788Z,99027.00
2023-03-31T22:23:06.878Z,99018.84
2023-03-31T22:25:33.672Z,99015.91
2023-03-31T22:28:00.712Z,99023.13
2023-03-31T22:30:27.381Z,99012.53
2023-03-31T22:32:54.853Z,99015.56
2023-03-31T22:35:21.770Z,99033.00
2023-03-31T22:37:48.203Z,99025.53
2023-03-31T22:40:14.612Z,99014.47
2023-03-31T22:42:41.818Z,99013.66
2023-03-31T22:45:08.844Z,99015.84
2023-03-31T22:47:35.806Z,99015.38
2023-03-31T22:50:02.129Z,99014.19
2023-03-31T22:52:28.506Z,99021.28
2023-03-31T22:54:54.841Z,99022.06
2023-03-31T22:57:21.412Z,99019.06
2023-03-31T22:59:47.773Z,99017.13
2023-03-31T23:02:14.187Z,99013.97
2023-03-31T23:04:40.560Z,99014.94
2023-03-31T23:07:07.222Z,99013.41
2023-03-31T23:09:33.696Z,99009.88
2023-03-31T23:12:00.222Z,99016.00
2023-03-31T23:14:26.924Z,99010.28
2023-03-31T23:16:53.710Z,99003.59
2023-03-31T23:19:20.213Z,99014.09
2023-03-31T23:21:46.572Z,99014.41
2023-03-31T23:24:13.036Z,99013.22
2023-03-31T23:26:39.448Z,99011.28
2023-03-31T23:29:06.043Z,99018.72
2023-03-31T23:31:33.191Z,99004.56
2023-03-31T23:34:00.525Z,99004.56
2023-03-31T23:36:27.868Z,99007.03
2023-03-31T23:38:56.261Z,99009.47
2023-03-31T23:41:23.989Z,98997.25
2023-03-31T23:43:53.576Z,99000.19
2023-03-31T23:46:20.361Z,99000.72
2023-03-31T23:48:46.782Z,98995.28
2023-03-31T23:51:13.374Z,99008.34
2023-03-31T23:53:39.849Z,99001.31
2023-03-31T23:56:12.133Z,98998.50
2023-03-31T23:58:39.494Z,98997.41
